createdAt,value
2019-04-14T04:00:18.202Z,90.09
2019-04-14T04:02:44.502Z,89.86
2019-04-14T04:05:10.730Z,89.67
2019-04-14T04:07:36.545Z,90.17
2019-04-14T04:10:05.602Z,90.35
2019-04-14T04:12:31.425Z,90.04
2019-04-14T04:14:57.496Z,89.88
2019-04-14T04:17:38.642Z,89.67
2019-04-14T04:20:06.784Z,90.55
2019-04-14T04:22:37.517Z,90.31
2019-04-14T04:25:11.661Z,90.74
2019-04-14T04:27:56.691Z,90.64
2019-04-14T04:30:36.458Z,90.75
2019-04-14T04:33:10.920Z,90.14
2019-04-14T04:35:41.505Z,90.32
2019-04-14T04:38:11.888Z,91.18
2019-04-14T04:40:37.661Z,90.58
2019-04-14T04:43:03.831Z,90.45
2019-04-14T04:45:30.015Z,90.49
2019-04-14T04:47:56.078Z,90.94
2019-04-14T04:50:21.760Z,91.07
2019-04-14T04:52:47.591Z,91.10
2019-04-14T04:55:13.429Z,91.37
2019-04-14T04:57:39.498Z,91.92
2019-04-14T05:00:05.472Z,92.01
2019-04-14T05:02:31.404Z,92.29
2019-04-14T05:04:57.111Z,92.42
2019-04-14T05:07:23.200Z,92.51
2019-04-14T05:09:51.348Z,92.97
2019-04-14T05:12:19.564Z,93.03
2019-04-14T05:14:50.117Z,93.01
2019-04-14T05:17:34.435Z,92.82
2019-04-14T05:20:00.797Z,92.75
2019-04-14T05:22:26.836Z,92.77
2019-04-14T05:24:52.873Z,92.84
2019-04-14T05:27:18.966Z,92.93
2019-04-14T05:29:45.104Z,92.76
2019-04-14T05:32:11.175Z,92.53
2019-04-14T05:34:37.194Z,92.30
2019-04-14T05:37:02.955Z,92.21
2019-04-14T05:39:28.737Z,92.11
2019-04-14T05:42:03.849Z,92.27
2019-04-14T05:44:23.072Z,92.07
2019-04-14T05:46:49.182Z,92.13
2019-04-14T05:49:28.626Z,91.83
2019-04-14T05:51:43.727Z,91.60
2019-04-14T05:54:10.000Z,91.93
2019-04-14T05:56:37.650Z,91.72
2019-04-14T05:59:04.375Z,92.00
2019-04-14T06:01:30.120Z,91.91
2019-04-14T06:03:56.134Z,92.00
2019-04-14T06:06:22.106Z,92.13
2019-04-14T06:08:47.801Z,92.31
2019-04-14T06:11:13.757Z,92.63
2019-04-14T06:13:39.528Z,93.06
2019-04-14T06:16:05.213Z,92.88
2019-04-14T06:18:30.995Z,92.97
2019-04-14T06:20:56.854Z,92.98
2019-04-14T06:23:22.574Z,92.89
2019-04-14T06:25:48.257Z,93.10
2019-04-14T06:28:13.995Z,93.18
2019-04-14T06:30:44.545Z,93.57
2019-04-14T06:33:12.201Z,93.19
2019-04-14T06:35:45.686Z,92.79
2019-04-14T06:38:13.353Z,92.92
2019-04-14T06:40:41.022Z,92.34
2019-04-14T06:43:06.794Z,92.78
2019-04-14T06:45:32.489Z,91.63
2019-04-14T06:47:58.198Z,92.03
2019-04-14T06:50:23.901Z,91.46
2019-04-14T06:52:49.711Z,90.65
2019-04-14T06:55:15.409Z,91.46
2019-04-14T06:57:41.123Z,91.64
2019-04-14T07:00:07.065Z,91.27
2019-04-14T07:02:32.788Z,91.17
2019-04-14T07:04:58.490Z,91.20
2019-04-14T07:07:24.200Z,91.37
2019-04-14T07:09:50.132Z,90.85
2019-04-14T07:12:16.253Z,90.64
2019-04-14T07:14:42.340Z,89.60
2019-04-14T07:17:08.093Z,88.29
2019-04-14T07:19:34.150Z,89.35
2019-04-14T07:22:00.108Z,89.50
2019-04-14T07:24:26.076Z,88.08
2019-04-14T07:26:51.781Z,87.04
2019-04-14T07:29:17.469Z,88.07
2019-04-14T07:31:47.646Z,87.62
2019-04-14T07:34:30.704Z,88.75
2019-04-14T07:37:03.932Z,88.82
2019-04-14T07:39:31.853Z,89.18
2019-04-14T07:42:11.700Z,86.91
2019-04-14T07:44:45.278Z,87.79
2019-04-14T07:47:15.502Z,87.42
2019-04-14T07:49:51.990Z,86.91
2019-04-14T07:52:25.689Z,84.30
2019-04-14T07:55:10.191Z,85.51
2019-04-14T07:57:38.141Z,80.41
2019-04-14T08:00:09.282Z,80.24
2019-04-14T08:02:36.954Z,81.15
2019-04-14T08:05:05.829Z,81.81
2019-04-14T08:07:31.586Z,80.85
2019-04-14T08:09:57.400Z,80.07
2019-04-14T08:12:23.102Z,77.91
2019-04-14T08:14:48.814Z,80.66
2019-04-14T08:17:14.504Z,77.97
2019-04-14T08:19:40.214Z,80.02
2019-04-14T08:22:06.144Z,80.07
2019-04-14T08:24:31.855Z,79.28
2019-04-14T08:26:57.642Z,78.10
2019-04-14T08:29:23.556Z,79.83
2019-04-14T08:31:49.281Z,82.50
2019-04-14T08:34:14.971Z,80.49
2019-04-14T08:36:40.690Z,79.78
2019-04-14T08:39:06.481Z,79.96
2019-04-14T08:41:34.611Z,79.24
2019-04-14T08:44:18.941Z,78.15
2019-04-14T08:47:01.234Z,78.03
2019-04-14T08:49:29.130Z,79.16
2019-04-14T08:52:02.859Z,77.85
2019-04-14T08:54:33.128Z,77.60
2019-04-14T08:57:15.725Z,76.85
2019-04-14T08:59:52.796Z,77.18
2019-04-14T09:02:32.151Z,77.67
2019-04-14T09:05:14.943Z,77.14
2019-04-14T09:07:48.838Z,77.09
2019-04-14T09:10:16.507Z,76.81
2019-04-14T09:12:53.021Z,78.58
2019-04-14T09:15:18.782Z,78.13
2019-04-14T09:17:44.473Z,79.41
2019-04-14T09:20:10.184Z,79.32
2019-04-14T09:22:35.880Z,77.15
2019-04-14T09:25:01.691Z,78.79
2019-04-14T09:27:27.449Z,78.37
2019-04-14T09:29:53.546Z,78.86
2019-04-14T09:32:19.421Z,77.76
2019-04-14T09:34:45.180Z,79.49
2019-04-14T09:37:12.189Z,78.79
2019-04-14T09:39:38.426Z,79.32
2019-04-14T09:42:04.127Z,80.71
2019-04-14T09:44:29.843Z,79.16
2019-04-14T09:46:55.866Z,79.24
2019-04-14T09:49:21.584Z,79.01
2019-04-14T09:51:47.269Z,79.12
2019-04-14T09:54:13.230Z,79.67
2019-04-14T09:56:38.917Z,79.68
2019-04-14T09:59:04.634Z,79.53
2019-04-14T10:01:30.322Z,79.29
2019-04-14T10:03:56.341Z,76.59
2019-04-14T10:06:22.033Z,76.33
2019-04-14T10:08:47.845Z,77.77
2019-04-14T10:11:13.539Z,78.66
2019-04-14T10:13:39.258Z,78.11
2019-04-14T10:16:04.956Z,78.62
2019-04-14T10:18:30.951Z,76.69
2019-04-14T10:20:56.644Z,77.94
2019-04-14T10:23:22.696Z,76.41
2019-04-14T10:25:48.381Z,76.70
2019-04-14T10:28:14.444Z,79.56
2019-04-14T10:30:40.212Z,77.15
2019-04-14T10:33:06.222Z,77.19
2019-04-14T10:35:31.909Z,77.82
2019-04-14T10:37:57.905Z,77.37
2019-04-14T10:40:23.825Z,78.33
2019-04-14T10:42:49.875Z,77.34
2019-04-14T10:45:18.236Z,76.74
2019-04-14T10:47:43.190Z,77.88
2019-04-14T10:50:08.955Z,77.84
2019-04-14T10:52:34.642Z,79.15
2019-04-14T10:55:00.363Z,77.82
2019-04-14T10:57:26.049Z,77.88
2019-04-14T10:59:51.766Z,76.70
2019-04-14T11:02:17.801Z,77.62
2019-04-14T11:04:43.520Z,78.87
2019-04-14T11:07:13.997Z,77.93
2019-04-14T11:09:39.771Z,77.48
2019-04-14T11:12:05.635Z,78.87
2019-04-14T11:14:31.333Z,79.30
2019-04-14T11:16:57.055Z,79.86
2019-04-14T11:19:23.041Z,80.73
2019-04-14T11:21:49.010Z,80.62
2019-04-14T11:24:14.995Z,79.32
2019-04-14T11:26:40.957Z,80.52
2019-04-14T11:29:06.677Z,80.01
2019-04-14T11:31:42.978Z,78.57
2019-04-14T11:34:10.648Z,79.10
2019-04-14T11:36:41.341Z,78.61
2019-04-14T11:39:09.015Z,77.99
2019-04-14T11:41:34.771Z,77.55
2019-04-14T11:44:00.578Z,77.81
2019-04-14T11:46:26.331Z,76.24
2019-04-14T11:48:52.101Z,74.60
2019-04-14T11:51:17.893Z,75.07
2019-04-14T11:53:43.594Z,75.07
2019-04-14T11:56:09.499Z,73.26
2019-04-14T11:58:35.665Z,73.24
2019-04-14T12:01:12.288Z,73.66
2019-04-14T12:03:39.945Z,73.32
2019-04-14T12:06:25.790Z,73.01
2019-04-14T12:09:08.549Z,72.39
2019-04-14T12:11:34.306Z,73.02
2019-04-14T12:14:00.096Z,71.94
2019-04-14T12:16:25.856Z,71.82
2019-04-14T12:18:51.623Z,74.94
2019-04-14T12:21:17.406Z,72.87
2019-04-14T12:23:43.416Z,69.69
2019-04-14T12:26:09.185Z,70.95
2019-04-14T12:28:36.016Z,70.70
2019-04-14T12:31:02.529Z,72.64
2019-04-14T12:33:28.297Z,70.75
2019-04-14T12:35:54.071Z,73.21
2019-04-14T12:38:19.835Z,71.95
2019-04-14T12:40:45.898Z,74.20
2019-04-14T12:43:25.380Z,72.67
2019-04-14T12:46:11.181Z,71.30
2019-04-14T12:48:41.951Z,71.06
2019-04-14T12:51:09.928Z,73.47
2019-04-14T12:53:35.700Z,72.93
2019-04-14T12:56:01.479Z,71.02
2019-04-14T12:58:29.155Z,70.40
2019-04-14T13:00:56.832Z,70.71
2019-04-14T13:03:23.524Z,72.99
2019-04-14T13:05:49.299Z,71.98
2019-04-14T13:08:15.299Z,69.88
2019-04-14T13:10:41.085Z,72.01
2019-04-14T13:13:07.114Z,71.46
2019-04-14T13:15:32.822Z,71.70
2019-04-14T13:17:58.534Z,72.02
2019-04-14T13:20:24.218Z,72.56
2019-04-14T13:22:50.288Z,71.47
2019-04-14T13:25:16.269Z,71.56
2019-04-14T13:27:42.234Z,70.71
2019-04-14T13:30:09.677Z,69.90
2019-04-14T13:32:36.458Z,70.29
2019-04-14T13:35:03.870Z,70.63
2019-04-14T13:37:29.885Z,71.42
2019-04-14T13:39:55.648Z,70.45
2019-04-14T13:42:21.418Z,71.73
2019-04-14T13:44:47.179Z,71.78
2019-04-14T13:47:13.031Z,72.38
2019-04-14T13:49:38.981Z,72.47
2019-04-14T13:52:04.783Z,72.48
2019-04-14T13:54:30.710Z,71.45
2019-04-14T13:56:56.430Z,72.00
2019-04-14T13:59:22.489Z,71.69
2019-04-14T14:01:48.197Z,71.12
2019-04-14T14:04:13.951Z,72.09
2019-04-14T14:06:40.054Z,72.30
2019-04-14T14:09:08.348Z,69.88
2019-04-14T14:11:48.131Z,68.93
2019-04-14T14:14:28.338Z,68.14
2019-04-14T14:17:01.570Z,71.05
2019-04-14T14:19:29.231Z,67.66
2019-04-14T14:22:05.965Z,70.14
2019-04-14T14:24:33.635Z,68.41
2019-04-14T14:27:04.252Z,68.68
2019-04-14T14:29:30.031Z,68.72
2019-04-14T14:31:56.806Z,69.67
2019-04-14T14:34:22.593Z,69.19
2019-04-14T14:36:48.350Z,68.92
2019-04-14T14:39:16.040Z,67.13
2019-04-14T14:41:41.794Z,67.33
2019-04-14T14:44:07.566Z,67.50
2019-04-14T14:46:51.715Z,67.00
2019-04-14T14:49:24.900Z,66.01
2019-04-14T14:52:04.403Z,65.99
2019-04-14T14:54:30.177Z,65.61
2019-04-14T14:56:55.966Z,63.75
2019-04-14T14:59:21.759Z,65.06
2019-04-14T15:01:47.440Z,65.06
2019-04-14T15:04:13.164Z,67.64
2019-04-14T15:06:39.249Z,68.54
2019-04-14T15:09:05.552Z,70.17
2019-04-14T15:11:31.262Z,69.95
2019-04-14T15:13:57.041Z,70.00
2019-04-14T15:16:22.808Z,70.19
2019-04-14T15:18:48.508Z,69.63
2019-04-14T15:21:14.235Z,69.99
2019-04-14T15:23:40.009Z,70.58
2019-04-14T15:26:06.111Z,69.95
2019-04-14T15:28:31.815Z,70.29
2019-04-14T15:30:57.534Z,69.52
2019-04-14T15:33:23.326Z,69.19
2019-04-14T15:35:49.393Z,69.04
2019-04-14T15:38:15.162Z,69.42
2019-04-14T15:40:41.234Z,67.58
2019-04-14T15:43:07.205Z,68.70
2019-04-14T15:45:33.183Z,68.88
2019-04-14T15:47:58.970Z,69.21
2019-04-14T15:50:24.747Z,70.33
2019-04-14T15:52:50.504Z,69.49
2019-04-14T15:55:17.489Z,69.39
2019-04-14T15:57:47.945Z,68.88
2019-04-14T16:00:29.457Z,70.18
2019-04-14T16:02:57.121Z,69.41
2019-04-14T16:05:24.798Z,68.23
2019-04-14T16:07:55.255Z,68.18
2019-04-14T16:10:23.220Z,67.31
2019-04-14T16:12:53.965Z,68.09
2019-04-14T16:15:38.531Z,68.07
2019-04-14T16:18:15.495Z,68.51
2019-04-14T16:20:43.177Z,68.56
2019-04-14T16:23:08.934Z,67.27
2019-04-14T16:25:42.477Z,69.03
2019-04-14T16:28:10.446Z,67.54
2019-04-14T16:30:50.193Z,69.56
2019-04-14T16:33:17.838Z,68.20
2019-04-14T16:35:44.904Z,69.93
2019-04-14T16:38:11.049Z,70.17
2019-04-14T16:40:37.013Z,69.90
2019-04-14T16:43:03.027Z,70.48
2019-04-14T16:45:28.813Z,70.57
2019-04-14T16:47:54.820Z,68.23
2019-04-14T16:50:20.510Z,70.07
2019-04-14T16:52:48.134Z,71.01
2019-04-14T16:55:21.581Z,69.69
2019-04-14T16:57:49.271Z,67.81
2019-04-14T17:00:16.939Z,69.14
2019-04-14T17:02:42.722Z,71.16
2019-04-14T17:05:08.491Z,70.23
2019-04-14T17:07:34.582Z,70.13
2019-04-14T17:10:00.275Z,70.90
2019-04-14T17:12:26.331Z,71.95
2019-04-14T17:14:56.615Z,71.73
2019-04-14T17:17:33.130Z,71.41
2019-04-14T17:20:03.680Z,72.83
2019-04-14T17:22:48.281Z,74.18
2019-04-14T17:25:25.086Z,74.55
2019-04-14T17:28:09.187Z,76.06
2019-04-14T17:30:46.241Z,77.04
2019-04-14T17:33:22.728Z,77.58
2019-04-14T17:36:05.517Z,77.93
2019-04-14T17:38:48.127Z,77.96
2019-04-14T17:41:27.668Z,78.20
2019-04-14T17:43:55.347Z,77.97
2019-04-14T17:46:28.817Z,78.36
2019-04-14T17:49:08.668Z,79.04
2019-04-14T17:51:42.119Z,79.62
2019-04-14T17:54:12.325Z,80.19
2019-04-14T17:56:45.820Z,80.15
2019-04-14T17:59:13.494Z,79.98
2019-04-14T18:01:56.511Z,80.27
2019-04-14T18:04:26.990Z,81.25
2019-04-14T18:07:12.534Z,81.01
2019-04-14T18:09:43.154Z,81.44
2019-04-14T18:12:11.086Z,81.64
2019-04-14T18:14:41.397Z,81.82
2019-04-14T18:17:14.654Z,81.99
2019-04-14T18:19:42.678Z,82.25
2019-04-14T18:22:08.699Z,82.33
2019-04-14T18:24:42.102Z,81.93
2019-04-14T18:27:02.168Z,82.61
2019-04-14T18:29:35.727Z,82.64
2019-04-14T18:32:21.617Z,83.36
2019-04-14T18:34:52.096Z,83.12
2019-04-14T18:37:28.578Z,83.00
2019-04-14T18:40:14.893Z,83.91
2019-04-14T18:42:42.555Z,84.47
2019-04-14T18:45:22.109Z,84.31
2019-04-14T18:47:50.043Z,84.35
2019-04-14T18:50:23.462Z,84.35
2019-04-14T18:52:59.954Z,84.95
2019-04-14T18:55:40.063Z,84.77
2019-04-14T18:58:19.817Z,84.41
2019-04-14T19:00:50.250Z,84.19
2019-04-14T19:03:16.026Z,84.26
2019-04-14T19:05:41.798Z,84.59
2019-04-14T19:08:07.481Z,84.86
2019-04-14T19:10:33.723Z,85.00
2019-04-14T19:13:09.988Z,85.12
2019-04-14T19:15:40.431Z,85.18
2019-04-14T19:18:17.603Z,84.83
2019-04-14T19:20:48.535Z,85.02
2019-04-14T19:23:14.565Z,85.15
2019-04-14T19:25:40.689Z,84.58
2019-04-14T19:28:06.394Z,85.14
2019-04-14T19:30:32.381Z,84.97
2019-04-14T19:32:58.349Z,84.94
2019-04-14T19:35:26.791Z,85.29
2019-04-14T19:37:52.136Z,85.60
2019-04-14T19:40:17.911Z,85.53
2019-04-14T19:42:44.545Z,85.38
2019-04-14T19:45:10.577Z,85.46
2019-04-14T19:47:36.282Z,85.48
2019-04-14T19:50:03.566Z,85.81
2019-04-14T19:52:29.328Z,85.96
2019-04-14T19:54:55.027Z,86.03
2019-04-14T19:57:20.734Z,86.26
2019-04-14T19:59:46.421Z,86.65
2019-04-14T20:03:53.466Z,86.64
2019-04-14T20:06:21.654Z,86.81
2019-04-14T20:08:49.823Z,86.70
2019-04-14T20:11:18.294Z,86.60
2019-04-14T20:13:47.033Z,86.72
2019-04-14T20:16:19.967Z,86.81
2019-04-14T20:19:10.481Z,86.41
2019-04-14T20:21:37.494Z,86.79
2019-04-14T20:24:10.144Z,86.59
2019-04-14T20:26:42.678Z,86.53
2019-04-14T20:29:12.503Z,86.74
2019-04-14T20:31:57.571Z,86.78
2019-04-14T20:34:25.747Z,86.85
2019-04-14T20:36:54.044Z,86.57
2019-04-14T20:39:23.094Z,86.71
2019-04-14T20:41:51.583Z,86.92
2019-04-14T20:44:19.757Z,87.17
2019-04-14T20:46:47.951Z,86.24
2019-04-14T20:49:16.118Z,85.86
2019-04-14T20:51:44.304Z,86.03
2019-04-14T20:54:12.473Z,87.13
2019-04-14T20:56:40.660Z,87.15
2019-04-14T20:59:08.831Z,87.03
2019-04-14T21:01:36.438Z,87.58
2019-04-14T21:04:06.557Z,87.48
2019-04-14T21:06:51.732Z,87.69
2019-04-14T21:09:21.849Z,87.67
2019-04-14T21:11:54.335Z,87.89
2019-04-14T21:14:40.929Z,87.94
2019-04-14T21:17:10.757Z,87.13
2019-04-14T21:19:40.869Z,87.08
2019-04-14T21:22:10.702Z,87.19
2019-04-14T21:24:57.014Z,86.90
2019-04-14T21:27:32.852Z,86.97
2019-04-14T21:30:14.932Z,87.29
2019-04-14T21:32:50.507Z,86.69
2019-04-14T21:35:29.205Z,86.15
2019-04-14T21:37:59.323Z,86.04
2019-04-14T21:40:45.358Z,86.57
2019-04-14T21:43:13.800Z,87.06
2019-04-14T21:45:41.967Z,87.38
2019-04-14T21:48:10.454Z,87.33
2019-04-14T21:50:38.794Z,87.54
2019-04-14T21:53:06.984Z,87.48
2019-04-14T21:55:35.210Z,87.20
2019-04-14T21:58:04.999Z,87.16
2019-04-14T22:01:05.287Z,87.34
2019-04-14T22:03:50.609Z,87.07
2019-04-14T22:06:20.418Z,87.54
2019-04-14T22:08:50.382Z,88.06
2019-04-14T22:11:26.073Z,88.16
2019-04-14T22:13:54.272Z,88.08
2019-04-14T22:16:22.442Z,88.22
2019-04-14T22:18:50.799Z,87.67
2019-04-14T22:21:18.979Z,87.74
2019-04-14T22:23:59.916Z,87.58
2019-04-14T22:26:26.032Z,87.26
2019-04-14T22:28:47.590Z,87.45
2019-04-14T22:31:16.083Z,86.71
2019-04-14T22:33:44.270Z,87.34
2019-04-14T22:36:12.445Z,86.92
2019-04-14T22:38:40.636Z,86.01
2019-04-14T22:41:08.809Z,85.98
2019-04-14T22:43:37.371Z,85.34
2019-04-14T22:46:05.541Z,85.33
2019-04-14T22:48:33.718Z,85.06
2019-04-14T22:51:01.906Z,85.15
2019-04-14T22:53:30.096Z,85.15
2019-04-14T22:55:58.291Z,85.48
2019-04-14T22:58:26.728Z,86.03
2019-04-14T23:00:56.566Z,85.17
2019-04-14T23:03:42.325Z,85.25
2019-04-14T23:06:15.086Z,85.44
2019-04-14T23:08:47.816Z,85.01
2019-04-14T23:11:33.063Z,84.85
2019-04-14T23:14:20.931Z,84.98
2019-04-14T23:17:07.508Z,84.94
2019-04-14T23:19:40.229Z,84.46
2019-04-14T23:22:12.722Z,84.57
2019-04-14T23:24:45.214Z,85.77
2019-04-14T23:27:13.723Z,85.66
2019-04-14T23:29:41.898Z,85.42
2019-04-14T23:32:10.150Z,85.79
2019-04-14T23:34:38.653Z,85.47
2019-04-14T23:37:06.840Z,85.33
2019-04-14T23:39:35.017Z,85.92
2019-04-14T23:42:03.211Z,86.28
2019-04-14T23:44:31.376Z,86.25
2019-04-14T23:46:59.563Z,86.12
2019-04-14T23:49:27.735Z,86.41
2019-04-14T23:51:55.916Z,86.55
2019-04-14T23:54:24.090Z,86.88
2019-04-14T23:57:04.821Z,87.09
2019-04-14T23:59:22.427Z,87.25
